Time;durP1;ratioP1;P1;durP2;ratioP2;P2;SDS_P1;SDS_P2;PMS_P1;PMS_P2;Temp;Humidity;BMP_temperature;BMP_pressure;BME280_temperature;BME280_humidity;BME280_pressure;Samples;Min_cycle;Max_cycle;Signal;HPM_P1;HPM_P2
2021/11/03 00:00:45;;;;;;;6.97;3.70;;;;;;;-146.90;100.00;60518.97;5043623;28;20033;-79
2021/11/03 00:03:12;;;;;;;6.88;3.90;;;;;;;-146.90;100.00;60518.97;5030815;28;20040;-78
2021/11/03 00:05:45;;;;;;;10.32;4.35;;;;;;;-146.90;100.00;60518.97;5045804;28;20034;-79
2021/11/03 00:08:19;;;;;;;7.15;4.63;;;;;;;-146.90;100.00;60518.97;5042203;28;20025;-78
2021/11/03 00:10:47;;;;;;;7.53;4.23;;;;;;;-146.90;100.00;60518.97;5041395;28;20477;-78
2021/11/03 00:13:14;;;;;;;9.85;4.85;;;;;;;-146.90;100.00;60518.97;5042679;28;20656;-78
2021/11/03 00:15:39;;;;;;;7.78;4.85;;;;;;;-146.90;100.00;60518.97;5045725;28;20029;-79
2021/11/03 00:18:05;;;;;;;8.45;4.60;;;;;;;-146.90;100.00;60518.97;5047789;28;20033;-78
2021/11/03 00:20:31;;;;;;;10.50;5.10;;;;;;;-146.90;100.00;60518.97;5044346;28;20083;-78
2021/11/03 00:22:57;;;;;;;8.77;4.95;;;;;;;-146.90;100.00;60518.97;5048847;28;20024;-77
2021/11/03 00:25:24;;;;;;;6.55;4.30;;;;;;;-146.90;100.00;60518.97;5046740;28;20448;-77
2021/11/03 00:27:49;;;;;;;9.80;5.30;;;;;;;-146.90;100.00;60518.97;5046812;28;20508;-77
2021/11/03 00:30:14;;;;;;;7.68;4.47;;;;;;;-146.90;100.00;60518.97;5035915;28;20025;-78
2021/11/03 00:32:40;;;;;;;8.27;4.93;;;;;;;-146.90;100.00;60518.97;5045668;28;20029;-78
2021/11/03 00:35:05;;;;;;;10.38;5.10;;;;;;;-146.90;100.00;60518.97;5040287;28;20029;-78
2021/11/03 00:37:31;;;;;;;8.00;4.32;;;;;;;-146.90;100.00;60518.97;5028669;28;20036;-79
2021/11/03 00:39:56;;;;;;;7.57;4.32;;;;;;;-146.90;100.00;60518.97;5027930;28;20060;-78
2021/11/03 00:42:21;;;;;;;8.02;5.13;;;;;;;-146.90;100.00;60518.97;5029130;28;20029;-78
2021/11/03 00:44:47;;;;;;;10.00;5.70;;;;;;;-146.90;100.00;60518.97;5037092;28;20033;-78
2021/11/03 00:47:12;;;;;;;14.93;7.80;;;;;;;-146.90;100.00;60518.97;5049511;28;20029;-80
2021/11/03 00:49:38;;;;;;;12.75;8.27;;;;;;;-146.90;100.00;60518.97;5036214;28;20021;-79
2021/11/03 00:52:03;;;;;;;12.73;8.77;;;;;;;-146.90;100.00;60518.97;5030167;28;20053;-79
2021/11/03 00:54:29;;;;;;;11.85;9.38;;;;;;;-146.90;100.00;60518.97;5028847;28;20025;-78
2021/11/03 00:56:54;;;;;;;16.10;9.63;;;;;;;-146.90;100.00;60518.97;5039789;28;20086;-78
2021/11/03 00:59:19;;;;;;;12.90;9.32;;;;;;;-146.90;100.00;60518.97;5041203;28;20033;-78
2021/11/03 01:01:48;;;;;;;14.48;10.02;;;;;;;-146.90;100.00;60518.97;5030557;28;20029;-78
2021/11/03 01:04:14;;;;;;;14.63;9.57;;;;;;;-146.90;100.00;60518.97;5032579;28;20425;-79
2021/11/03 01:06:39;;;;;;;13.60;10.60;;;;;;;-146.90;100.00;60518.97;5034846;28;20037;-79
2021/11/03 01:09:05;;;;;;;15.60;11.25;;;;;;;-146.90;100.00;60518.97;5039949;28;20425;-79
2021/11/03 01:11:31;;;;;;;20.60;11.75;;;;;;;-146.90;100.00;60518.97;5040740;28;20082;-78
2021/11/03 01:13:56;;;;;;;15.70;10.98;;;;;;;-146.90;100.00;60518.97;5048473;28;20032;-78
2021/11/03 01:16:21;;;;;;;14.77;10.85;;;;;;;-146.90;100.00;60518.97;5045640;28;20032;-79
2021/11/03 01:18:53;;;;;;;16.10;11.18;;;;;;;-146.90;100.00;60518.97;5033344;28;20025;-78
2021/11/03 01:21:18;;;;;;;18.10;11.25;;;;;;;-146.90;100.00;60518.97;5036242;28;20036;-79
2021/11/03 01:23:43;;;;;;;15.18;10.88;;;;;;;-146.90;100.00;60518.97;5012286;28;20030;-79
2021/11/03 01:26:09;;;;;;;15.35;10.95;;;;;;;-146.90;100.00;60518.97;5030658;28;20120;-79
2021/11/03 01:28:34;;;;;;;14.50;10.68;;;;;;;-146.90;100.00;60518.97;5043317;28;20031;-79
2021/11/03 01:30:59;;;;;;;15.35;11.07;;;;;;;-146.90;100.00;60518.97;5042995;28;20037;-78
2021/11/03 01:33:25;;;;;;;14.27;10.40;;;;;;;-146.90;100.00;60518.97;5046379;28;20124;-79
2021/11/03 01:35:50;;;;;;;16.58;10.32;;;;;;;-146.90;100.00;60518.97;5040608;28;20033;-80
2021/11/03 01:38:15;;;;;;;14.50;9.95;;;;;;;-146.90;100.00;60518.97;5017445;28;20055;-77
2021/11/03 01:40:44;;;;;;;16.17;10.15;;;;;;;-146.90;100.00;60518.97;5039408;28;20032;-78
2021/11/03 01:43:17;;;;;;;15.30;10.27;;;;;;;-146.90;100.00;60518.97;5044682;28;20032;-78
2021/11/03 01:45:42;;;;;;;14.20;10.48;;;;;;;-146.90;100.00;60518.97;5047945;28;20037;-78
2021/11/03 01:48:09;;;;;;;16.73;11.05;;;;;;;-146.90;100.00;60518.97;5046987;28;20044;-79
2021/11/03 01:50:41;;;;;;;17.52;10.82;;;;;;;-146.90;100.00;60518.97;5043807;28;20037;-79
2021/11/03 01:53:09;;;;;;;19.20;11.95;;;;;;;-146.90;100.00;60518.97;5031944;28;20112;-79
2021/11/03 01:55:35;;;;;;;17.27;12.02;;;;;;;-146.90;100.00;60518.97;5024430;28;20029;-79
2021/11/03 01:58:11;;;;;;;18.13;12.40;;;;;;;-146.90;100.00;60518.97;5047150;28;20031;-78
2021/11/03 02:00:40;;;;;;;20.08;13.50;;;;;;;-146.90;100.00;60518.97;5042855;28;20059;-79
2021/11/03 02:03:15;;;;;;;16.35;11.48;;;;;;;-146.90;100.00;60518.97;5044049;28;20032;-78
2021/11/03 02:05:46;;;;;;;17.10;11.38;;;;;;;-146.90;100.00;60518.97;5042957;28;20262;-77
2021/11/03 02:08:12;;;;;;;16.67;11.63;;;;;;;-146.90;100.00;60518.97;5035779;28;20489;-78
2021/11/03 02:10:38;;;;;;;15.98;11.20;;;;;;;-146.90;100.00;60518.97;5038091;28;20066;-78
2021/11/03 02:13:04;;;;;;;19.77;11.73;;;;;;;-146.90;100.00;60518.97;5030180;28;20529;-78
2021/11/03 02:15:29;;;;;;;16.23;10.85;;;;;;;-146.90;100.00;60518.97;5042701;28;20083;-78
2021/11/03 02:17:55;;;;;;;13.48;10.38;;;;;;;-146.90;100.00;60518.97;5045635;28;20063;-79
2021/11/03 02:20:23;;;;;;;12.88;10.57;;;;;;;-146.90;100.00;60518.97;5041676;28;20025;-77
2021/11/03 02:22:59;;;;;;;21.30;10.70;;;;;;;-146.90;100.00;60518.97;5047678;28;20070;-77
2021/11/03 02:25:29;;;;;;;19.33;10.63;;;;;;;-146.90;100.00;60518.97;5044351;28;20367;-77
2021/11/03 02:27:55;;;;;;;14.18;10.23;;;;;;;-146.90;100.00;60518.97;5047215;28;20417;-79
2021/11/03 02:30:24;;;;;;;11.57;8.95;;;;;;;-146.90;100.00;60518.97;5034795;28;20112;-77
2021/11/03 02:33:01;;;;;;;14.02;9.40;;;;;;;-146.90;100.00;60518.97;5043120;28;20092;-79
2021/11/03 02:35:26;;;;;;;14.10;8.95;;;;;;;-146.90;100.00;60518.97;5038834;28;20096;-79
2021/11/03 02:37:53;;;;;;;16.15;9.88;;;;;;;-146.90;100.00;60518.97;5047815;28;20537;-78
2021/11/03 02:40:41;;;;;;;12.35;9.57;;;;;;;-146.90;100.00;60518.97;5042316;28;20378;-78
2021/11/03 02:43:26;;;;;;;12.50;9.40;;;;;;;-146.90;100.00;60518.97;5045456;28;20104;-78
2021/11/03 02:45:54;;;;;;;16.48;10.10;;;;;;;-146.90;100.00;60518.97;5039507;28;20036;-78
2021/11/03 02:48:23;;;;;;;14.73;10.88;;;;;;;-146.90;100.00;60518.97;5028424;28;20105;-78
2021/11/03 02:50:59;;;;;;;14.52;10.10;;;;;;;-146.90;100.00;60518.97;5046480;28;20059;-79
2021/11/03 02:53:25;;;;;;;13.20;10.45;;;;;;;-146.90;100.00;60518.97;5047699;28;20029;-78
2021/11/03 02:55:51;;;;;;;12.43;9.52;;;;;;;-146.90;100.00;60518.97;5031709;28;20046;-77
2021/11/03 02:58:16;;;;;;;14.18;10.45;;;;;;;-146.90;100.00;60518.97;5048467;28;20033;-77
2021/11/03 03:00:42;;;;;;;14.23;9.68;;;;;;;-146.90;100.00;60518.97;5046854;28;20028;-78
2021/11/03 03:03:08;;;;;;;15.88;10.95;;;;;;;-146.90;100.00;60518.97;5050382;28;20429;-78
2021/11/03 03:05:33;;;;;;;15.98;9.82;;;;;;;-146.90;100.00;60518.97;5046510;28;20113;-77
2021/11/03 03:07:58;;;;;;;13.65;9.68;;;;;;;-146.90;100.00;60518.97;5030579;28;20021;-78
2021/11/03 03:10:24;;;;;;;17.83;10.35;;;;;;;-146.90;100.00;60518.97;5033437;28;20022;-77
2021/11/03 03:12:51;;;;;;;12.18;9.48;;;;;;;-146.90;100.00;60518.97;5037313;28;20338;-78
2021/11/03 03:15:16;;;;;;;16.38;11.32;;;;;;;-146.90;100.00;60518.97;5048748;28;20029;-78
2021/11/03 03:17:41;;;;;;;17.38;11.48;;;;;;;-146.90;100.00;60518.97;5051877;28;20021;-78
2021/11/03 03:20:08;;;;;;;12.88;10.07;;;;;;;-146.90;100.00;60518.97;5034591;28;20029;-77
2021/11/03 03:22:33;;;;;;;14.10;10.32;;;;;;;-146.90;100.00;60518.97;5051134;28;20371;-77
2021/11/03 03:24:58;;;;;;;13.45;10.82;;;;;;;-146.90;100.00;60518.97;5043572;28;20032;-78
2021/11/03 03:27:24;;;;;;;15.02;10.02;;;;;;;-146.90;100.00;60518.97;5030461;28;20497;-77
2021/11/03 03:29:49;;;;;;;12.43;9.25;;;;;;;-146.90;100.00;60518.97;5040377;28;20489;-77
2021/11/03 03:32:15;;;;;;;16.10;10.57;;;;;;;-146.90;100.00;60518.97;5052027;28;20044;-78
2021/11/03 03:34:41;;;;;;;15.43;10.73;;;;;;;-146.90;100.00;60518.97;5047199;28;20543;-78
2021/11/03 03:37:07;;;;;;;13.82;9.30;;;;;;;-146.90;100.00;60518.97;5033217;28;20120;-77
2021/11/03 03:39:32;;;;;;;13.70;9.98;;;;;;;-146.90;100.00;60518.97;5044853;28;20308;-78
2021/11/03 03:42:10;;;;;;;14.02;9.73;;;;;;;-146.90;100.00;60518.97;5037508;28;20021;-79
2021/11/03 03:44:36;;;;;;;18.67;11.50;;;;;;;-146.90;100.00;60518.97;5046044;28;20096;-78
2021/11/03 03:47:02;;;;;;;16.95;10.85;;;;;;;-146.90;100.00;60518.97;5046463;28;20036;-77
2021/11/03 03:49:28;;;;;;;15.98;11.20;;;;;;;-146.90;100.00;60518.97;5050516;28;20111;-78
2021/11/03 03:51:53;;;;;;;14.05;9.93;;;;;;;-146.90;100.00;60518.97;5047689;28;20032;-78
2021/11/03 03:54:19;;;;;;;18.25;9.82;;;;;;;-146.90;100.00;60518.97;5038259;28;20065;-78
2021/11/03 03:56:44;;;;;;;16.60;10.63;;;;;;;-146.90;100.00;60518.97;5044309;28;20409;-79
2021/11/03 03:59:10;;;;;;;16.95;11.25;;;;;;;-146.90;100.00;60518.97;5048603;28;20104;-77
2021/11/03 04:01:35;;;;;;;16.27;10.88;;;;;;;-146.90;100.00;60518.97;5046316;28;20084;-77
2021/11/03 04:04:00;;;;;;;15.13;11.25;;;;;;;-146.90;100.00;60518.97;5047841;28;20025;-77
2021/11/03 04:06:26;;;;;;;16.42;10.85;;;;;;;-146.90;100.00;60518.97;5046146;28;20033;-77
2021/11/03 04:08:51;;;;;;;15.27;10.77;;;;;;;-146.90;100.00;60518.97;5047660;28;20021;-77
2021/11/03 04:11:17;;;;;;;16.60;11.75;;;;;;;-146.90;100.00;60518.97;5037042;28;20033;-78
2021/11/03 04:13:43;;;;;;;20.45;12.90;;;;;;;-146.90;100.00;60518.97;5047780;28;20033;-78
2021/11/03 04:16:09;;;;;;;18.98;12.35;;;;;;;-146.90;100.00;60518.97;5047482;28;20039;-77
2021/11/03 04:18:35;;;;;;;19.13;12.27;;;;;;;-146.90;100.00;60518.97;5049164;28;20055;-77
2021/11/03 04:21:00;;;;;;;17.13;11.38;;;;;;;-146.90;100.00;60518.97;5043081;28;20028;-77
2021/11/03 04:23:25;;;;;;;17.65;11.90;;;;;;;-146.90;100.00;60518.97;5049711;28;20064;-78
2021/11/03 04:25:51;;;;;;;20.92;12.02;;;;;;;-146.90;100.00;60518.97;5045522;28;20418;-78
2021/11/03 04:28:17;;;;;;;19.73;11.55;;;;;;;-146.90;100.00;60518.97;5036778;28;20080;-79
2021/11/03 04:30:43;;;;;;;18.90;11.45;;;;;;;-146.90;100.00;60518.97;5030069;28;20815;-78
2021/11/03 04:33:08;;;;;;;18.08;11.32;;;;;;;-146.90;100.00;60518.97;5029124;28;20291;-78
2021/11/03 04:35:34;;;;;;;16.50;11.07;;;;;;;-146.90;100.00;60518.97;5034161;28;20033;-78
2021/11/03 04:38:00;;;;;;;21.77;13.63;;;;;;;-146.90;100.00;60518.97;5050320;28;20123;-78
2021/11/03 04:40:27;;;;;;;19.73;12.80;;;;;;;-146.90;100.00;60518.97;5047499;28;20124;-77
2021/11/03 04:42:53;;;;;;;23.67;14.02;;;;;;;-146.90;100.00;60518.97;5033995;28;20089;-78
2021/11/03 04:45:19;;;;;;;20.83;14.48;;;;;;;-146.90;100.00;60518.97;5040625;28;20025;-78
2021/11/03 04:47:46;;;;;;;25.05;15.98;;;;;;;-146.90;100.00;60518.97;5037042;28;20111;-78
2021/11/03 04:50:20;;;;;;;20.90;14.52;;;;;;;-146.90;100.00;60518.97;5038527;28;20029;-78
2021/11/03 04:52:46;;;;;;;23.23;15.18;;;;;;;-146.90;100.00;60518.97;5050378;28;20044;-78
2021/11/03 04:55:11;;;;;;;27.88;15.23;;;;;;;-146.90;100.00;60518.97;5032606;28;20025;-79
2021/11/03 04:57:37;;;;;;;27.48;16.25;;;;;;;-146.90;100.00;60518.97;5046131;28;20029;-79
2021/11/03 05:00:05;;;;;;;34.45;18.38;;;;;;;-146.90;100.00;60518.97;5046948;28;20359;-78
2021/11/03 05:02:31;;;;;;;30.55;16.30;;;;;;;-146.90;100.00;60518.97;5050682;28;20029;-78
2021/11/03 05:04:57;;;;;;;33.97;17.58;;;;;;;-146.90;100.00;60518.97;5035607;28;20028;-78
2021/11/03 05:07:22;;;;;;;30.40;16.25;;;;;;;-146.90;100.00;60518.97;5047761;28;20075;-79
2021/11/03 05:09:48;;;;;;;27.35;15.65;;;;;;;-146.90;100.00;60518.97;5035821;28;20035;-78
2021/11/03 05:12:13;;;;;;;27.88;14.95;;;;;;;-146.90;100.00;60518.97;5034994;28;20082;-78
2021/11/03 05:14:38;;;;;;;21.70;13.57;;;;;;;-146.90;100.00;60518.97;5027855;28;20090;-79
2021/11/03 05:17:04;;;;;;;22.35;14.75;;;;;;;-146.90;100.00;60518.97;5043125;28;20467;-79
2021/11/03 05:19:31;;;;;;;21.10;14.23;;;;;;;-146.90;100.00;60518.97;5047218;28;20033;-79
2021/11/03 05:22:02;;;;;;;21.65;14.50;;;;;;;-146.90;100.00;60518.97;5049461;28;20029;-79
2021/11/03 05:24:28;;;;;;;22.70;14.27;;;;;;;-146.90;100.00;60518.97;5040980;28;20040;-79
2021/11/03 05:26:54;;;;;;;24.55;15.90;;;;;;;-146.90;100.00;60518.97;5043554;28;20033;-78
2021/11/03 05:29:20;;;;;;;22.02;13.43;;;;;;;-146.90;100.00;60518.97;5049871;28;20032;-78
2021/11/03 05:31:45;;;;;;;22.10;13.90;;;;;;;-146.90;100.00;60518.97;5032685;28;20209;-77
2021/11/03 05:34:11;;;;;;;19.48;13.38;;;;;;;-146.90;100.00;60518.97;5048647;28;20362;-77
2021/11/03 05:36:37;;;;;;;22.15;14.20;;;;;;;-146.90;100.00;60518.97;5045516;28;20162;-77
2021/11/03 05:39:11;;;;;;;22.58;14.15;;;;;;;-146.90;100.00;60518.97;5044021;28;20036;-78
2021/11/03 05:41:38;;;;;;;;;;;;;;;-146.90;100.00;60518.97;5036590;28;20044;-77
2021/11/03 05:44:08;;;;;;;19.55;13.85;;;;;;;-146.90;100.00;60518.97;5048227;28;19916;-78
2021/11/03 05:46:40;;;;;;;25.63;16.23;;;;;;;-146.90;100.00;60518.97;5041266;28;20030;-78
2021/11/03 05:49:09;;;;;;;25.50;16.73;;;;;;;-146.90;100.00;60518.97;5026317;28;20033;-78
2021/11/03 05:51:36;;;;;;;22.50;16.13;;;;;;;-146.90;100.00;60518.97;5029663;28;20029;-78
2021/11/03 05:54:01;;;;;;;23.92;15.98;;;;;;;-146.90;100.00;60518.97;5041865;28;20075;-78
2021/11/03 05:56:26;;;;;;;24.02;16.05;;;;;;;-146.90;100.00;60518.97;5038216;28;20048;-78
2021/11/03 05:58:52;;;;;;;25.38;16.90;;;;;;;-146.90;100.00;60518.97;5038774;28;20027;-78
2021/11/03 06:01:17;;;;;;;28.25;18.08;;;;;;;-146.90;100.00;60518.97;5039200;28;20074;-79
2021/11/03 06:03:42;;;;;;;28.40;18.75;;;;;;;-146.90;100.00;60518.97;5029059;28;20121;-78
2021/11/03 06:06:11;;;;;;;30.30;19.05;;;;;;;-146.90;100.00;60518.97;5027392;28;20105;-79
2021/11/03 06:08:36;;;;;;;31.63;18.55;;;;;;;-146.90;100.00;60518.97;5028829;28;20024;-78
2021/11/03 06:11:02;;;;;;;26.52;18.85;;;;;;;-146.90;100.00;60518.97;5031201;28;20033;-78
2021/11/03 06:13:27;;;;;;;31.55;19.48;;;;;;;-146.90;100.00;60518.97;5049465;28;20445;-78
2021/11/03 06:15:53;;;;;;;29.50;19.23;;;;;;;-146.90;100.00;60518.97;5042025;28;20136;-78
2021/11/03 06:18:18;;;;;;;29.58;19.02;;;;;;;-146.90;100.00;60518.97;5045236;28;20372;-78
2021/11/03 06:20:43;;;;;;;29.65;19.20;;;;;;;-146.90;100.00;60518.97;5041201;28;20029;-77
2021/11/03 06:23:09;;;;;;;29.02;17.02;;;;;;;-146.90;100.00;60518.97;5026859;28;20037;-78
2021/11/03 06:25:35;;;;;;;28.05;17.92;;;;;;;-146.90;100.00;60518.97;5046936;28;20044;-79
2021/11/03 06:28:01;;;;;;;32.10;19.90;;;;;;;-146.90;100.00;60518.97;5044828;28;20033;-78
2021/11/03 06:30:30;;;;;;;27.30;18.65;;;;;;;-146.90;100.00;60518.97;5047161;28;20060;-78
2021/11/03 06:32:56;;;;;;;30.10;18.55;;;;;;;-146.90;100.00;60518.97;5045915;28;20032;-78
2021/11/03 06:35:22;;;;;;;23.85;16.13;;;;;;;-146.90;100.00;60518.97;5033550;28;20474;-78
2021/11/03 06:37:47;;;;;;;20.80;14.95;;;;;;;-146.90;100.00;60518.97;5024900;28;20032;-77
2021/11/03 06:40:15;;;;;;;28.25;17.52;;;;;;;-146.90;100.00;60518.97;5021881;28;20040;-76
2021/11/03 06:42:41;;;;;;;29.17;19.45;;;;;;;-146.90;100.00;60518.97;5022303;28;20385;-78
2021/11/03 06:45:07;;;;;;;32.25;20.52;;;;;;;-146.90;100.00;60518.97;5039696;28;20144;-77
2021/11/03 06:47:33;;;;;;;31.10;19.80;;;;;;;-146.90;100.00;60518.97;5023756;28;20034;-77
2021/11/03 06:49:59;;;;;;;28.45;18.67;;;;;;;-146.90;100.00;60518.97;5021967;28;20120;-78
2021/11/03 06:52:25;;;;;;;30.05;18.80;;;;;;;-146.90;100.00;60518.97;5040601;28;20493;-77
2021/11/03 06:54:51;;;;;;;33.95;19.00;;;;;;;-146.90;100.00;60518.97;5035954;28;20032;-78
2021/11/03 06:57:16;;;;;;;35.60;19.85;;;;;;;-146.90;100.00;60518.97;5023420;28;20037;-77
2021/11/03 06:59:43;;;;;;;29.60;17.50;;;;;;;-146.90;100.00;60518.97;5022882;28;20105;-77
2021/11/03 07:02:10;;;;;;;28.75;17.05;;;;;;;-146.90;100.00;60518.97;5026854;28;20025;-79
2021/11/03 07:04:35;;;;;;;25.02;17.60;;;;;;;-146.90;100.00;60518.97;5025489;28;20036;-78
2021/11/03 07:07:00;;;;;;;31.67;19.95;;;;;;;-146.90;100.00;60518.97;5021436;28;20018;-77
2021/11/03 07:09:26;;;;;;;29.15;19.48;;;;;;;-146.90;100.00;60518.97;5024010;28;20048;-78
2021/11/03 07:11:51;;;;;;;31.92;20.98;;;;;;;-146.90;100.00;60518.97;5024445;28;20029;-77
2021/11/03 07:14:16;;;;;;;29.73;20.10;;;;;;;-146.90;100.00;60518.97;5025570;28;20026;-77
2021/11/03 07:16:42;;;;;;;35.22;22.63;;;;;;;-146.90;100.00;60518.97;5030338;28;20036;-77
2021/11/03 07:19:07;;;;;;;33.55;21.33;;;;;;;-146.90;100.00;60518.97;5041830;28;20040;-81
2021/11/03 07:21:32;;;;;;;30.98;20.38;;;;;;;-146.90;100.00;60518.97;5037638;28;20029;-81
2021/11/03 07:23:58;;;;;;;32.45;22.50;;;;;;;-146.90;100.00;60518.97;5030400;28;20025;-81
2021/11/03 07:26:24;;;;;;;34.92;22.10;;;;;;;-146.90;100.00;60518.97;5040151;28;20029;-81
2021/11/03 07:28:49;;;;;;;29.58;19.90;;;;;;;-146.90;100.00;60518.97;5049071;28;20382;-80
2021/11/03 07:31:14;;;;;;;30.88;20.98;;;;;;;-146.90;100.00;60518.97;5036589;28;20025;-81
2021/11/03 07:33:40;;;;;;;33.63;21.40;;;;;;;-146.90;100.00;60518.97;5030214;28;20033;-80
2021/11/03 07:36:09;;;;;;;33.70;21.08;;;;;;;-146.90;100.00;60518.97;5030678;28;20068;-82
2021/11/03 07:38:36;;;;;;;32.30;20.98;;;;;;;-146.90;100.00;60518.97;5021270;28;20038;-80
2021/11/03 07:41:01;;;;;;;34.13;20.50;;;;;;;-146.90;100.00;60518.97;5020286;28;20070;-80
2021/11/03 07:43:27;;;;;;;30.35;19.75;;;;;;;-146.90;100.00;60518.97;5011778;28;20034;-82
2021/11/03 07:45:54;;;;;;;31.52;18.38;;;;;;;-146.90;100.00;60518.97;5011260;28;20026;-82
2021/11/03 07:48:22;;;;;;;28.25;17.35;;;;;;;-146.90;100.00;60518.97;5034157;28;20426;-81
2021/11/03 07:50:52;;;;;;;24.70;15.85;;;;;;;-146.90;100.00;60518.97;5011135;28;20383;-81
2021/11/03 07:53:17;;;;;;;30.17;18.58;;;;;;;-146.90;100.00;60518.97;5012448;28;20370;-79
2021/11/03 07:55:46;;;;;;;28.02;17.98;;;;;;;-146.90;100.00;60518.97;5029659;28;20028;-78
2021/11/03 07:58:14;;;;;;;28.67;18.80;;;;;;;-146.90;100.00;60518.97;5030726;28;20410;-76
2021/11/03 08:00:39;;;;;;;26.00;17.83;;;;;;;-146.90;100.00;60518.97;5029970;28;20048;-76
2021/11/03 08:03:05;;;;;;;30.00;18.55;;;;;;;-146.90;100.00;60518.97;5029043;28;20400;-77
2021/11/03 08:05:30;;;;;;;29.90;18.10;;;;;;;-146.90;100.00;60518.97;5036790;28;20444;-78
2021/11/03 08:08:03;;;;;;;35.50;21.50;;;;;;;-146.90;100.00;60518.97;5037426;28;20525;-77
2021/11/03 08:10:29;;;;;;;35.17;22.33;;;;;;;-146.90;100.00;60518.97;5045426;28;20147;-76
2021/11/03 08:12:56;;;;;;;37.67;24.30;;;;;;;-146.90;100.00;60518.97;5028350;28;20452;-79
2021/11/03 08:15:22;;;;;;;35.30;22.48;;;;;;;-146.90;100.00;60518.97;5028544;28;20490;-79
2021/11/03 08:17:48;;;;;;;37.03;24.08;;;;;;;-146.90;100.00;60518.97;5041913;28;20394;-79
2021/11/03 08:20:23;;;;;;;37.63;23.65;;;;;;;-146.90;100.00;60518.97;5039236;28;20045;-80
2021/11/03 08:22:49;;;;;;;36.25;22.92;;;;;;;-146.90;100.00;60518.97;5026789;28;20041;-81
2021/11/03 08:25:15;;;;;;;40.45;23.73;;;;;;;-146.90;100.00;60518.97;5031127;28;20021;-78
2021/11/03 08:27:40;;;;;;;34.92;23.25;;;;;;;-146.90;100.00;60518.97;5029708;28;20036;-76
2021/11/03 08:30:08;;;;;;;35.85;22.10;;;;;;;-146.90;100.00;60518.97;5029242;28;20021;-76
2021/11/03 08:32:39;;;;;;;30.30;21.23;;;;;;;-146.90;100.00;60518.97;5029022;28;20466;-77
2021/11/03 08:35:09;;;;;;;35.00;22.25;;;;;;;-146.90;100.00;60518.97;5037593;28;20135;-79
2021/11/03 08:37:37;;;;;;;31.35;21.05;;;;;;;-146.90;100.00;60518.97;5037982;28;20482;-77
2021/11/03 08:40:04;;;;;;;28.20;20.13;;;;;;;-146.90;100.00;60518.97;5058830;28;20443;-77
2021/11/03 08:42:29;;;;;;;26.05;19.00;;;;;;;-146.90;100.00;60518.97;5028129;28;20072;-77
2021/11/03 08:44:55;;;;;;;28.98;20.48;;;;;;;-146.90;100.00;60518.97;5038748;28;20029;-79
2021/11/03 08:47:21;;;;;;;28.45;20.55;;;;;;;-146.90;100.00;60518.97;5029331;28;20147;-79
2021/11/03 08:49:46;;;;;;;32.63;21.25;;;;;;;-146.90;100.00;60518.97;5029562;28;20505;-78
2021/11/03 08:52:12;;;;;;;30.83;22.08;;;;;;;-146.90;100.00;60518.97;5028509;28;20021;-81
2021/11/03 08:54:38;;;;;;;34.38;21.42;;;;;;;-146.90;100.00;60518.97;5028925;28;20117;-78
2021/11/03 08:57:05;;;;;;;27.30;19.02;;;;;;;-146.90;100.00;60518.97;5028929;28;20039;-78
2021/11/03 08:59:31;;;;;;;26.17;19.70;;;;;;;-146.90;100.00;60518.97;5021337;28;20402;-77
2021/11/03 09:01:56;;;;;;;27.17;18.75;;;;;;;-146.90;100.00;60518.97;5027106;28;20029;-77
2021/11/03 09:04:21;;;;;;;25.20;18.40;;;;;;;-146.90;100.00;60518.97;5024830;28;20099;-77
2021/11/03 09:06:47;;;;;;;25.48;19.33;;;;;;;-146.90;100.00;60518.97;5022446;28;20037;-77
2021/11/03 09:09:12;;;;;;;26.27;18.63;;;;;;;-146.90;100.00;60518.97;5037013;28;20021;-77
2021/11/03 09:11:38;;;;;;;23.33;18.10;;;;;;;-146.90;100.00;60518.97;5020267;28;20381;-77
2021/11/03 09:14:04;;;;;;;29.35;18.58;;;;;;;-146.90;100.00;60518.97;5034424;28;20045;-76
2021/11/03 09:16:30;;;;;;;21.98;17.42;;;;;;;-146.90;100.00;60518.97;5019255;28;20091;-77
2021/11/03 09:18:55;;;;;;;23.08;16.65;;;;;;;-146.90;100.00;60518.97;5035269;28;20159;-76
2021/11/03 09:21:22;;;;;;;23.50;17.33;;;;;;;-146.90;100.00;60518.97;5034851;28;20470;-75
2021/11/03 09:23:47;;;;;;;23.63;16.70;;;;;;;-146.90;100.00;60518.97;5017571;28;20029;-76
2021/11/03 09:26:20;;;;;;;21.88;15.82;;;;;;;-146.90;100.00;60518.97;5013137;28;20052;-76
2021/11/03 09:28:45;;;;;;;20.10;15.30;;;;;;;-146.90;100.00;60518.97;5033111;28;20417;-75
2021/11/03 09:31:11;;;;;;;21.73;16.40;;;;;;;-146.90;100.00;60518.97;5027874;28;20032;-75
2021/11/03 09:33:38;;;;;;;23.23;16.85;;;;;;;-146.90;100.00;60518.97;5027896;28;20017;-74
2021/11/03 09:36:06;;;;;;;20.35;16.48;;;;;;;-146.90;100.00;60518.97;5028879;28;20104;-77
2021/11/03 09:38:32;;;;;;;22.38;16.08;;;;;;;-146.90;100.00;60518.97;5026624;28;20025;-77
2021/11/03 09:41:02;;;;;;;22.38;16.95;;;;;;;-146.90;100.00;60518.97;5026543;28;20029;-76
2021/11/03 09:43:40;;;;;;;23.70;17.73;;;;;;;-146.90;100.00;60518.97;5027899;28;20063;-76
2021/11/03 09:46:17;;;;;;;23.88;16.15;;;;;;;-146.90;100.00;60518.97;5043702;28;20021;-77
2021/11/03 09:48:43;;;;;;;21.70;17.52;;;;;;;-146.90;100.00;60518.97;5034137;28;20496;-76
2021/11/03 09:51:19;;;;;;;21.45;16.23;;;;;;;-146.90;100.00;60518.97;5047399;28;20016;-77
2021/11/03 09:53:51;;;;;;;24.27;17.00;;;;;;;-146.90;100.00;60518.97;5041491;28;20028;-77
2021/11/03 09:56:21;;;;;;;20.88;16.30;;;;;;;-146.90;100.00;60518.97;5027750;28;20029;-77
2021/11/03 09:59:18;;;;;;;23.52;16.65;;;;;;;-146.90;100.00;60518.97;5028606;28;20109;-78
2021/11/03 10:01:51;;;;;;;21.17;15.73;;;;;;;-146.90;100.00;60518.97;5020853;28;20037;-77
2021/11/03 10:04:36;;;;;;;19.17;14.37;;;;;;;-146.90;100.00;60518.97;5043578;28;20029;-77
2021/11/03 10:07:22;;;;;;;22.98;15.77;;;;;;;-146.90;100.00;60518.97;5028154;28;20037;-77
2021/11/03 10:09:48;;;;;;;19.25;15.00;;;;;;;-146.90;100.00;60518.97;5027252;28;20021;-76
2021/11/03 10:12:17;;;;;;;21.02;14.82;;;;;;;-146.90;100.00;60518.97;5026788;28;20030;-76
2021/11/03 10:14:43;;;;;;;22.42;16.95;;;;;;;-146.90;100.00;60518.97;5029040;28;20017;-79
2021/11/03 10:17:35;;;;;;;20.20;15.73;;;;;;;-146.90;100.00;60518.97;5028494;28;20350;-77
2021/11/03 10:20:43;;;;;;;21.63;15.50;;;;;;;-146.90;100.00;60518.97;5026298;28;20139;-77
2021/11/03 10:23:18;;;;;;;25.52;15.07;;;;;;;-146.90;100.00;60518.97;5047440;28;20045;-77
2021/11/03 10:25:49;;;;;;;19.73;13.90;;;;;;;-146.90;100.00;60518.97;5046379;28;20231;-77
2021/11/03 10:28:32;;;;;;;17.35;13.77;;;;;;;-146.90;100.00;60518.97;5047224;28;20086;-78
2021/11/03 10:30:59;;;;;;;17.85;13.60;;;;;;;-146.90;100.00;60518.97;5037650;28;20169;-79
2021/11/03 10:33:32;;;;;;;16.98;13.38;;;;;;;-146.90;100.00;60518.97;5028574;28;20370;-77
2021/11/03 10:36:11;;;;;;;18.80;13.43;;;;;;;-146.90;100.00;60518.97;5026873;28;20029;-77
2021/11/03 10:38:53;;;;;;;23.42;13.48;;;;;;;-146.90;100.00;60518.97;5031540;28;20068;-78
2021/11/03 10:41:23;;;;;;;20.17;13.32;;;;;;;-146.90;100.00;60518.97;5042217;28;20072;-78
2021/11/03 10:44:03;;;;;;;19.42;13.20;;;;;;;-146.90;100.00;60518.97;5027812;28;20024;-78
2021/11/03 10:46:45;;;;;;;21.98;13.77;;;;;;;-146.90;100.00;60518.97;5026112;28;20033;-79
2021/11/03 10:49:38;;;;;;;16.98;13.18;;;;;;;-146.90;100.00;60518.97;5030118;28;20104;-79
2021/11/03 10:52:29;;;;;;;17.13;11.95;;;;;;;-146.90;100.00;60518.97;5021659;28;20049;-77
2021/11/03 10:54:57;;;;;;;26.73;12.77;;;;;;;-146.90;100.00;60518.97;5025342;28;20516;-80
2021/11/03 10:57:37;;;;;;;19.50;12.55;;;;;;;-146.90;100.00;60518.97;5029963;28;20090;-84
2021/11/03 11:00:17;;;;;;;18.60;12.55;;;;;;;-146.90;100.00;60518.97;5028105;28;20113;-82